Forside
METAR-TAF:

METAR-TAF

Lufthavne :

Harare, Zimbabwe

Breddekreds: 17-55S, længdekreds: 031-08E, højde: 1479 m

Aktuelle vejr

Denne rapport blev lavet for 4 timer og 8 minutter siden, kl. 14:00 UTC
Vind 9 kt fra øst
Temperatur 24°C
Fugtighed 29%
Tryk 1027 hPa
Sigt 10 km eller mere
ingen skyer under 1500m og ingen cumulonimbus

METAR: FVHA 141400Z 08009KT CAVOK 24/05 Q1027 NOSIG

Tid: 20:08 (18:08 UTC)

Vejrudsigter

Denne rapport blev lavet for 8 timer og 8 minutter siden, kl. 10:00 UTC
Foreløbig gælder fra 14 på 12 UTC til 15 på 18 UTC
Vind 15 kt fra østnordøst
Sigt 10 km eller mere
ingen skyer under 1500m og ingen cumulonimbus

TAF: FVHA 141000Z 1412/1518 07015KT CAVOK

Vejrobservationer og prognoser fra mere end 4000 lufthavne (METAR og TAF).

De gule og røde prikker repræsenterer de meteorologiske stationer.

Flyt musen over at se navnet på stationen.

Så klik over at se vejr observationer og prognoser.

At skifte det kort: Klik på de grønne knapper med et sort kors for at zoome ind; på den grønne knap med en bindestreg for at zoome ud; eller på de grønne pile for tilstødende kort.


METAR-TAF: